createdAt,value
2022-11-05T00:00:29.591Z,948.71
2022-11-05T00:01:29.642Z,948.75
2022-11-05T00:02:29.557Z,948.78
2022-11-05T00:03:29.622Z,948.77
2022-11-05T00:04:31.025Z,948.74
2022-11-05T00:05:29.515Z,948.77
2022-11-05T00:06:29.502Z,948.78
2022-11-05T00:07:29.487Z,948.78
2022-11-05T00:08:29.495Z,948.79
2022-11-05T00:09:29.459Z,948.79
2022-11-05T00:10:29.440Z,948.79
2022-11-05T00:11:29.426Z,948.81
2022-11-05T00:12:29.409Z,948.8
2022-11-05T00:13:29.396Z,948.85
2022-11-05T00:14:29.378Z,948.84
2022-11-05T00:15:29.366Z,948.86
2022-11-05T00:16:29.351Z,948.87
2022-11-05T00:17:29.338Z,948.88
2022-11-05T00:18:29.321Z,948.88
2022-11-05T00:19:29.306Z,948.85
2022-11-05T00:20:29.291Z,948.89
2022-11-05T00:21:29.277Z,948.87
2022-11-05T00:22:29.260Z,948.94
2022-11-05T00:23:29.245Z,948.92
2022-11-05T00:24:29.258Z,948.97
2022-11-05T00:25:29.791Z,948.95
2022-11-05T00:26:29.779Z,948.92
2022-11-05T00:27:29.761Z,948.95
2022-11-05T00:28:29.753Z,948.91
2022-11-05T00:29:29.732Z,948.93
2022-11-05T00:30:29.719Z,948.96
2022-11-05T00:31:29.702Z,948.94
2022-11-05T00:32:29.691Z,949
2022-11-05T00:33:29.674Z,949.01
2022-11-05T00:34:29.660Z,949
2022-11-05T00:35:29.641Z,949.02
2022-11-05T00:36:29.629Z,949.05
2022-11-05T00:37:29.614Z,949.08
2022-11-05T00:38:29.599Z,949.04
2022-11-05T00:39:29.584Z,949.12
2022-11-05T00:40:29.695Z,949.13
2022-11-05T00:41:29.554Z,949.12
2022-11-05T00:42:29.541Z,949.09
2022-11-05T00:43:29.526Z,949.12
2022-11-05T00:44:29.511Z,949.15
2022-11-05T00:45:29.494Z,949.17
2022-11-05T00:46:29.482Z,949.18
2022-11-05T00:47:29.464Z,949.19
2022-11-05T00:48:29.451Z,949.18
2022-11-05T00:49:29.435Z,949.19
2022-11-05T00:50:29.422Z,949.18
2022-11-05T00:51:29.498Z,949.2
2022-11-05T00:52:29.483Z,949.28
2022-11-05T00:53:29.465Z,949.24
2022-11-05T00:54:29.454Z,949.27
2022-11-05T00:55:29.441Z,949.28
2022-11-05T00:56:29.445Z,949.31
2022-11-05T00:57:29.408Z,949.36
2022-11-05T00:58:29.395Z,949.34
2022-11-05T00:59:29.377Z,949.37
2022-11-05T01:00:29.368Z,949.41
2022-11-05T01:01:29.450Z,949.43
2022-11-05T01:02:29.482Z,949.44
2022-11-05T01:03:29.316Z,949.47
2022-11-05T01:04:29.303Z,949.5
2022-11-05T01:05:29.286Z,949.49
2022-11-05T01:06:29.275Z,949.5
2022-11-05T01:07:29.257Z,949.53
2022-11-05T01:08:29.242Z,949.52
2022-11-05T01:09:29.226Z,949.52
2022-11-05T01:10:29.213Z,949.56
2022-11-05T01:11:29.198Z,949.56
2022-11-05T01:12:29.208Z,949.58
2022-11-05T01:13:29.167Z,949.54
2022-11-05T01:14:29.151Z,949.59
2022-11-05T01:15:29.140Z,949.57
2022-11-05T01:16:29.123Z,949.59
2022-11-05T01:17:29.109Z,949.6
2022-11-05T01:18:29.092Z,949.6
2022-11-05T01:19:29.079Z,949.56
2022-11-05T01:20:29.064Z,949.6
2022-11-05T01:21:29.049Z,949.61
2022-11-05T01:22:29.033Z,949.64
2022-11-05T01:23:29.020Z,949.61
2022-11-05T01:24:29.002Z,949.6
2022-11-05T01:25:28.989Z,949.62
2022-11-05T01:26:28.973Z,949.61
2022-11-05T01:27:28.958Z,949.63
2022-11-05T01:28:28.986Z,949.63
2022-11-05T01:29:28.928Z,949.62
2022-11-05T01:30:28.913Z,949.66
2022-11-05T01:31:28.912Z,949.63
2022-11-05T01:32:28.884Z,949.66
2022-11-05T01:33:28.872Z,949.63
2022-11-05T01:34:28.853Z,949.66
2022-11-05T01:35:28.839Z,949.7
2022-11-05T01:36:28.822Z,949.67
2022-11-05T01:37:28.809Z,949.68
2022-11-05T01:38:28.795Z,949.71
2022-11-05T01:39:28.779Z,949.68
2022-11-05T01:40:28.763Z,949.74
2022-11-05T01:41:28.750Z,949.75
2022-11-05T01:42:28.733Z,949.76
2022-11-05T01:43:28.720Z,949.75
2022-11-05T01:44:28.728Z,949.77
2022-11-05T01:45:28.689Z,949.79
2022-11-05T01:46:28.725Z,949.77
2022-11-05T01:47:28.712Z,949.79
2022-11-05T01:48:28.694Z,949.84
2022-11-05T01:49:28.682Z,949.83
2022-11-05T01:50:28.665Z,949.86
2022-11-05T01:51:28.650Z,949.83
2022-11-05T01:52:28.634Z,949.82
2022-11-05T01:53:28.621Z,949.85
2022-11-05T01:54:28.602Z,949.81
2022-11-05T01:55:28.593Z,949.81
2022-11-05T01:56:28.576Z,949.92
2022-11-05T01:57:28.560Z,949.9
2022-11-05T01:58:28.547Z,949.9
2022-11-05T01:59:28.531Z,949.87
2022-11-05T02:00:28.544Z,949.84
2022-11-05T02:01:28.634Z,949.87
2022-11-05T02:02:28.563Z,949.87
2022-11-05T02:03:28.472Z,949.94
2022-11-05T02:04:28.455Z,949.87
2022-11-05T02:05:28.440Z,949.92
2022-11-05T02:06:28.426Z,949.93
2022-11-05T02:07:28.409Z,949.96
2022-11-05T02:08:28.397Z,949.93
2022-11-05T02:09:28.378Z,950
2022-11-05T02:10:28.366Z,949.98
2022-11-05T02:11:28.352Z,949.97
2022-11-05T02:12:28.335Z,949.97
2022-11-05T02:13:28.320Z,950
2022-11-05T02:14:28.306Z,950
2022-11-05T02:15:28.293Z,949.97
2022-11-05T02:16:28.385Z,949.95
2022-11-05T02:17:28.259Z,949.94
2022-11-05T02:18:28.246Z,949.97
2022-11-05T02:19:28.232Z,949.96
2022-11-05T02:20:28.216Z,949.96
2022-11-05T02:21:28.199Z,949.97
2022-11-05T02:22:28.187Z,949.99
2022-11-05T02:23:28.168Z,950.03
2022-11-05T02:24:28.156Z,950.04
2022-11-05T02:25:28.138Z,950.02
2022-11-05T02:26:28.128Z,950.05
2022-11-05T02:27:28.110Z,950.07
2022-11-05T02:28:28.098Z,950.08
2022-11-05T02:29:28.081Z,950.08
2022-11-05T02:30:28.065Z,950.08
2022-11-05T02:31:28.049Z,950.07
2022-11-05T02:32:28.058Z,950.13
2022-11-05T02:33:28.019Z,950.1
2022-11-05T02:34:28.005Z,950.07
2022-11-05T02:35:27.989Z,950.11
2022-11-05T02:36:27.975Z,950.12
2022-11-05T02:37:27.959Z,950.14
2022-11-05T02:38:27.946Z,950.14
2022-11-05T02:39:27.928Z,950.17
2022-11-05T02:40:27.915Z,950.18
2022-11-05T02:41:27.900Z,950.19
2022-11-05T02:42:27.884Z,950.21
2022-11-05T02:43:27.868Z,950.19
2022-11-05T02:44:27.854Z,950.21
2022-11-05T02:45:27.836Z,950.18
2022-11-05T02:46:27.826Z,950.22
2022-11-05T02:47:27.808Z,950.2
2022-11-05T02:48:27.821Z,950.22
2022-11-05T02:49:27.778Z,950.22
2022-11-05T02:50:28.760Z,950.2
2022-11-05T02:51:28.743Z,950.21
2022-11-05T02:52:28.731Z,950.25
2022-11-05T02:53:28.712Z,950.26
2022-11-05T02:54:28.738Z,950.28
2022-11-05T02:55:28.682Z,950.29
2022-11-05T02:56:28.671Z,950.31
2022-11-05T02:57:28.655Z,950.3
2022-11-05T02:58:28.638Z,950.29
2022-11-05T02:59:28.624Z,950.33
2022-11-05T03:00:28.607Z,950.31
2022-11-05T03:01:28.653Z,950.31
2022-11-05T03:02:28.716Z,950.29
2022-11-05T03:03:28.564Z,950.3
2022-11-05T03:04:28.573Z,950.31
2022-11-05T03:05:28.534Z,950.31
2022-11-05T03:06:28.517Z,950.3
2022-11-05T03:07:28.510Z,950.33
2022-11-05T03:08:28.487Z,950.35
2022-11-05T03:09:28.472Z,950.37
2022-11-05T03:10:28.457Z,950.34
2022-11-05T03:11:28.443Z,950.41
2022-11-05T03:12:28.428Z,950.44
2022-11-05T03:13:28.413Z,950.42
2022-11-05T03:14:28.396Z,950.43
2022-11-05T03:15:28.385Z,950.45
2022-11-05T03:16:28.368Z,950.49
2022-11-05T03:17:28.353Z,950.44
2022-11-05T03:18:28.336Z,950.47
2022-11-05T03:19:28.324Z,950.46
2022-11-05T03:20:28.357Z,950.42
2022-11-05T03:21:28.292Z,950.44
2022-11-05T03:22:28.275Z,950.43
2022-11-05T03:23:28.265Z,950.43
2022-11-05T03:24:28.247Z,950.4
2022-11-05T03:25:28.232Z,950.47
2022-11-05T03:26:28.217Z,950.45
2022-11-05T03:27:28.204Z,950.46
2022-11-05T03:28:28.186Z,950.46
2022-11-05T03:29:28.172Z,950.48
2022-11-05T03:30:28.157Z,950.49
2022-11-05T03:31:28.146Z,950.5
2022-11-05T03:32:28.129Z,950.48
2022-11-05T03:49:46.419Z,950.66
2022-11-05T03:50:46.372Z,950.63
2022-11-05T03:51:46.356Z,950.66
2022-11-05T03:52:46.335Z,950.63
2022-11-05T03:53:46.320Z,950.61
2022-11-05T03:54:46.302Z,950.63
2022-11-05T03:55:46.287Z,950.65
2022-11-05T03:56:46.267Z,950.66
2022-11-05T03:57:46.253Z,950.69
2022-11-05T03:58:46.234Z,950.69
2022-11-05T03:59:46.220Z,950.73
2022-11-05T04:00:46.202Z,950.7
2022-11-05T04:01:46.262Z,950.75
2022-11-05T04:02:46.397Z,950.69
2022-11-05T04:03:46.155Z,950.73
2022-11-05T04:04:46.136Z,950.67
2022-11-05T04:05:46.149Z,950.69
2022-11-05T04:06:46.110Z,950.74
2022-11-05T04:07:46.091Z,950.73
2022-11-05T04:08:46.074Z,950.71
2022-11-05T04:09:46.061Z,950.76
2022-11-05T04:10:46.044Z,950.75
2022-11-05T04:11:46.029Z,950.77
2022-11-05T04:12:46.011Z,950.8
2022-11-05T04:13:45.998Z,950.84
2022-11-05T04:14:45.981Z,950.81
2022-11-05T04:15:45.968Z,950.85
2022-11-05T04:16:45.949Z,950.86
2022-11-05T04:17:45.937Z,950.87
2022-11-05T04:18:45.916Z,950.87
2022-11-05T04:19:45.903Z,950.88
2022-11-05T04:20:45.888Z,950.85
2022-11-05T04:21:45.898Z,950.84
2022-11-05T04:22:45.859Z,950.88
2022-11-05T04:23:45.843Z,950.91
2022-11-05T04:24:45.827Z,950.86
2022-11-05T04:25:45.813Z,950.82
2022-11-05T04:26:45.793Z,950.82
2022-11-05T04:27:45.781Z,950.81
2022-11-05T04:28:45.766Z,950.83
2022-11-05T04:29:45.749Z,950.81
2022-11-05T04:30:45.741Z,950.84
2022-11-05T04:31:45.720Z,950.83
2022-11-05T04:32:45.702Z,950.88
2022-11-05T04:33:45.689Z,950.83
2022-11-05T04:34:45.671Z,950.88
2022-11-05T04:35:45.659Z,950.84
2022-11-05T04:36:45.639Z,950.87
2022-11-05T04:37:45.653Z,950.86
2022-11-05T04:38:45.610Z,950.91
2022-11-05T04:39:45.601Z,950.89
2022-11-05T04:40:45.583Z,950.93
2022-11-05T04:41:45.563Z,950.91
2022-11-05T04:42:45.551Z,950.88
2022-11-05T04:43:45.864Z,950.9
2022-11-05T04:44:45.847Z,950.87
2022-11-05T04:45:45.831Z,950.85
2022-11-05T04:46:45.831Z,950.87
2022-11-05T04:47:45.802Z,950.91
2022-11-05T04:48:45.789Z,950.93
2022-11-05T04:49:45.769Z,950.95
2022-11-05T04:50:45.756Z,950.94
2022-11-05T04:51:45.794Z,950.95
2022-11-05T04:52:45.725Z,951.03
2022-11-05T04:53:45.736Z,951.04
2022-11-05T04:54:45.695Z,951.04
2022-11-05T04:55:45.679Z,951.05
2022-11-05T04:56:45.665Z,951.08
2022-11-05T04:57:45.648Z,951.13
2022-11-05T04:58:45.640Z,951.13
2022-11-05T04:59:45.618Z,951.13
2022-11-05T05:00:45.630Z,951.17
2022-11-05T05:01:45.622Z,951.19
2022-11-05T05:02:45.574Z,951.2
2022-11-05T05:03:45.557Z,951.21
2022-11-05T05:04:45.986Z,951.21
2022-11-05T05:05:45.969Z,951.21
2022-11-05T05:06:45.957Z,951.26
2022-11-05T05:07:45.939Z,951.25
2022-11-05T05:08:45.926Z,951.22
2022-11-05T05:09:45.931Z,951.24
2022-11-05T05:10:45.896Z,951.29
2022-11-05T05:11:45.880Z,951.3
2022-11-05T05:12:45.869Z,951.29
2022-11-05T05:13:45.848Z,951.34
2022-11-05T05:14:45.834Z,951.31
2022-11-05T05:15:45.818Z,951.32
2022-11-05T05:16:45.804Z,951.35
2022-11-05T05:17:45.787Z,951.34
2022-11-05T05:18:46.493Z,951.32
2022-11-05T05:19:45.758Z,951.31
2022-11-05T05:20:45.743Z,951.32
2022-11-05T05:21:45.728Z,951.32
2022-11-05T05:22:45.714Z,951.33
2022-11-05T05:23:45.697Z,951.31
2022-11-05T05:24:50.023Z,951.31
2022-11-05T05:25:45.690Z,951.33
2022-11-05T05:26:45.653Z,951.34
2022-11-05T05:27:45.638Z,951.31
2022-11-05T05:28:45.622Z,951.31
2022-11-05T05:29:45.606Z,951.31
2022-11-05T05:30:45.593Z,951.37
2022-11-05T05:31:45.581Z,951.4
2022-11-05T05:32:45.566Z,951.46
2022-11-05T05:33:45.547Z,951.43
2022-11-05T05:34:45.530Z,951.48
2022-11-05T05:35:45.519Z,951.51
2022-11-05T05:36:45.501Z,951.51
2022-11-05T05:37:45.489Z,951.55
2022-11-05T05:38:45.469Z,951.63
2022-11-05T05:39:45.457Z,951.66
2022-11-05T05:40:45.441Z,951.63
2022-11-05T05:41:45.453Z,951.64
2022-11-05T05:42:45.410Z,951.65
2022-11-05T05:43:45.399Z,951.67
2022-11-05T05:44:45.387Z,951.68
2022-11-05T05:45:45.367Z,951.71
2022-11-05T05:46:45.356Z,951.68
2022-11-05T05:47:45.339Z,951.71
2022-11-05T05:48:45.322Z,951.71
2022-11-05T05:49:45.306Z,951.75
2022-11-05T05:50:45.290Z,951.75
2022-11-05T05:51:45.276Z,951.77
2022-11-05T05:52:45.262Z,951.79
2022-11-05T05:53:45.248Z,951.77
2022-11-05T05:54:45.232Z,951.8
2022-11-05T05:55:45.220Z,951.84
2022-11-05T05:56:45.201Z,951.79
2022-11-05T05:57:45.212Z,951.78
2022-11-05T05:58:45.172Z,951.8
2022-11-05T05:59:45.160Z,951.82
2022-11-05T06:00:45.141Z,951.85
2022-11-05T06:01:45.244Z,951.86
2022-11-05T06:02:45.291Z,951.89
2022-11-05T06:03:45.098Z,951.87
2022-11-05T06:04:45.082Z,951.85
2022-11-05T06:05:45.067Z,951.9
2022-11-05T06:06:45.053Z,951.91
2022-11-05T06:07:45.039Z,951.93
2022-11-05T06:08:45.022Z,951.99
2022-11-05T06:09:45.009Z,951.98
2022-11-05T06:10:45.087Z,952
2022-11-05T06:11:44.980Z,952.03
2022-11-05T06:12:44.965Z,952.07
2022-11-05T06:13:44.972Z,952.05
2022-11-05T06:14:44.932Z,952.03
2022-11-05T06:15:44.920Z,952.07
2022-11-05T06:16:44.904Z,952.04
2022-11-05T06:17:44.890Z,952.1
2022-11-05T06:18:44.876Z,952.09
2022-11-05T06:19:44.863Z,952.11
2022-11-05T06:20:44.857Z,952.15
2022-11-05T06:21:44.831Z,952.16
2022-11-05T06:22:44.815Z,952.22
2022-11-05T06:23:44.801Z,952.19
2022-11-05T06:24:44.787Z,952.22
2022-11-05T06:25:44.772Z,952.21
2022-11-05T06:26:44.756Z,952.21
2022-11-05T06:27:44.744Z,952.21
2022-11-05T06:28:44.730Z,952.24
2022-11-05T06:29:44.760Z,952.24
2022-11-05T06:30:44.696Z,952.25
2022-11-05T06:31:44.680Z,952.27
2022-11-05T06:32:44.667Z,952.32
2022-11-05T06:33:44.648Z,952.31
2022-11-05T06:34:44.638Z,952.32
2022-11-05T06:35:44.620Z,952.37
2022-11-05T06:36:44.605Z,952.37
2022-11-05T06:37:44.589Z,952.42
2022-11-05T06:38:44.578Z,952.46
2022-11-05T06:39:44.559Z,952.46
2022-11-05T06:40:44.545Z,952.48
2022-11-05T06:42:12.473Z,952.49
2022-11-05T06:42:44.517Z,952.47
2022-11-05T06:43:44.499Z,952.55
2022-11-05T06:44:44.485Z,952.55
2022-11-05T06:45:44.492Z,952.55
2022-11-05T06:46:48.440Z,952.54
2022-11-05T06:47:44.439Z,952.58
2022-11-05T06:48:44.427Z,952.58
2022-11-05T06:49:44.417Z,952.59
2022-11-05T06:50:44.397Z,952.58
2022-11-05T06:51:44.381Z,952.65
2022-11-05T06:52:44.366Z,952.64
2022-11-05T06:53:44.351Z,952.71
2022-11-05T06:54:44.338Z,952.67
2022-11-05T06:55:44.374Z,952.69
2022-11-05T06:56:44.362Z,952.65
2022-11-05T06:57:44.346Z,952.68
2022-11-05T06:58:44.330Z,952.68
2022-11-05T06:59:44.315Z,952.65
2022-11-05T07:00:44.367Z,952.65
2022-11-05T07:01:44.514Z,952.66
2022-11-05T07:02:44.273Z,952.64
2022-11-05T07:03:44.258Z,952.66
2022-11-05T07:04:44.244Z,952.65
2022-11-05T07:05:44.226Z,952.72
2022-11-05T07:06:44.213Z,952.71
2022-11-05T07:07:44.198Z,952.73
2022-11-05T07:08:44.183Z,952.78
2022-11-05T07:09:44.167Z,952.74
2022-11-05T07:10:44.153Z,952.74
2022-11-05T07:11:44.140Z,952.76
2022-11-05T07:12:44.134Z,952.8
2022-11-05T07:13:44.109Z,952.76
2022-11-05T07:14:44.095Z,952.74
2022-11-05T07:15:44.083Z,952.73
2022-11-05T07:16:44.066Z,952.8
2022-11-05T07:17:44.076Z,952.77
2022-11-05T07:18:44.038Z,952.81
2022-11-05T07:19:44.024Z,952.79
2022-11-05T07:20:44.011Z,952.85
2022-11-05T07:21:43.995Z,952.86
2022-11-05T07:22:43.980Z,952.8
2022-11-05T07:23:43.965Z,952.82
2022-11-05T07:24:43.950Z,952.84
2022-11-05T07:25:43.936Z,952.87
2022-11-05T07:26:43.920Z,952.89
2022-11-05T07:27:43.918Z,952.91
2022-11-05T07:28:43.891Z,952.93
2022-11-05T07:29:43.888Z,952.95
2022-11-05T07:30:43.870Z,952.97
2022-11-05T07:31:43.911Z,952.99
2022-11-05T07:32:43.833Z,953.04
2022-11-05T07:33:43.846Z,953.11
2022-11-05T07:34:43.805Z,953.12
2022-11-05T07:35:43.790Z,953.11
2022-11-05T07:36:43.775Z,953.12
2022-11-05T07:37:43.764Z,953.12
2022-11-05T07:38:43.746Z,953.17
2022-11-05T07:39:43.733Z,953.19
2022-11-05T07:40:43.985Z,953.2
2022-11-05T07:41:43.975Z,953.24
2022-11-05T07:42:43.956Z,953.24
2022-11-05T07:43:43.944Z,953.22
2022-11-05T07:44:43.927Z,953.26
2022-11-05T07:45:43.914Z,953.3
2022-11-05T07:46:43.897Z,953.29
2022-11-05T07:47:43.885Z,953.28
2022-11-05T07:48:43.869Z,953.34
2022-11-05T07:49:43.880Z,953.35
2022-11-05T07:50:43.840Z,953.37
2022-11-05T07:51:43.825Z,953.39
2022-11-05T07:52:43.810Z,953.41
2022-11-05T07:53:45.400Z,953.43
2022-11-05T07:54:43.782Z,953.41
2022-11-05T07:55:43.769Z,953.44
2022-11-05T07:56:43.753Z,953.44
2022-11-05T07:57:43.741Z,953.45
2022-11-05T07:58:43.725Z,953.47
2022-11-05T07:59:43.714Z,953.5
2022-11-05T08:00:43.808Z,953.5
2022-11-05T08:01:43.986Z,953.51
2022-11-05T08:02:44.561Z,953.48
2022-11-05T08:03:44.430Z,953.55
2022-11-05T08:04:44.345Z,953.54
2022-11-05T08:05:44.361Z,953.55
2022-11-05T08:06:44.320Z,953.56
2022-11-05T08:07:44.306Z,953.54
2022-11-05T08:08:44.293Z,953.57
2022-11-05T08:09:44.278Z,953.55
2022-11-05T08:10:44.264Z,953.55
2022-11-05T08:11:44.248Z,953.56
2022-11-05T08:12:44.240Z,953.53
2022-11-05T08:13:44.229Z,953.54
2022-11-05T08:14:44.208Z,953.55
2022-11-05T08:15:44.200Z,953.56
2022-11-05T08:16:44.179Z,953.54
2022-11-05T08:17:44.166Z,953.6
2022-11-05T08:18:44.151Z,953.57
2022-11-05T08:19:44.136Z,953.57
2022-11-05T08:20:44.123Z,953.59
2022-11-05T08:21:44.134Z,953.61
2022-11-05T08:22:44.095Z,953.6
2022-11-05T08:23:44.084Z,953.58
2022-11-05T08:24:44.069Z,953.58
2022-11-05T08:25:44.065Z,953.58
2022-11-05T08:26:44.059Z,953.6
2022-11-05T08:27:44.022Z,953.63
2022-11-05T08:28:44.023Z,953.59
2022-11-05T08:29:43.992Z,953.61
2022-11-05T08:30:43.980Z,953.61
2022-11-05T08:31:43.965Z,953.59
2022-11-05T08:32:43.960Z,953.59
2022-11-05T08:33:43.936Z,953.61
2022-11-05T08:34:43.921Z,953.61
2022-11-05T08:35:43.906Z,953.59
2022-11-05T08:36:43.895Z,953.63
2022-11-05T08:37:43.909Z,953.65
2022-11-05T08:38:43.868Z,953.66
2022-11-05T08:39:43.852Z,953.66
2022-11-05T08:40:43.837Z,953.67
2022-11-05T08:41:43.826Z,953.65
2022-11-05T08:42:43.809Z,953.65
2022-11-05T08:43:43.792Z,953.69
2022-11-05T08:44:43.780Z,953.65
2022-11-05T08:45:44.349Z,953.68
2022-11-05T08:46:44.336Z,953.67
2022-11-05T08:47:44.320Z,953.66
2022-11-05T08:48:44.308Z,953.67
2022-11-05T08:49:44.291Z,953.7
2022-11-05T08:50:44.279Z,953.71
2022-11-05T08:51:44.278Z,953.66
2022-11-05T08:52:44.252Z,953.68
2022-11-05T08:53:44.261Z,953.69
2022-11-05T08:54:44.225Z,953.66
2022-11-05T08:55:44.244Z,953.68
2022-11-05T08:56:44.194Z,953.7
2022-11-05T08:57:44.182Z,953.73
2022-11-05T08:58:44.167Z,953.72
2022-11-05T08:59:44.155Z,953.74
2022-11-05T09:00:44.219Z,953.79
2022-11-05T09:01:44.278Z,953.79
2022-11-05T09:02:44.222Z,953.79
2022-11-05T09:03:44.101Z,953.78
2022-11-05T09:04:44.086Z,953.83
2022-11-05T09:05:44.075Z,953.82
2022-11-05T09:06:44.061Z,953.84
2022-11-05T09:07:44.048Z,953.81
2022-11-05T09:08:44.033Z,953.83
2022-11-05T09:09:44.139Z,953.8
2022-11-05T09:10:44.012Z,953.77
2022-11-05T09:12:10.343Z,953.78
2022-11-05T09:12:43.985Z,953.79
2022-11-05T09:13:43.970Z,953.77
2022-11-05T09:14:43.956Z,953.77
2022-11-05T09:15:43.946Z,953.73
2022-11-05T09:16:43.930Z,953.77
2022-11-05T09:17:43.918Z,953.79
2022-11-05T09:18:43.905Z,953.76
2022-11-05T09:19:43.893Z,953.78
2022-11-05T09:20:43.888Z,953.8
2022-11-05T09:21:43.871Z,953.78
2022-11-05T09:22:43.852Z,953.8
2022-11-05T09:23:43.841Z,953.8
2022-11-05T09:24:43.828Z,953.82
2022-11-05T09:25:43.870Z,953.87
2022-11-05T09:26:43.803Z,953.87
2022-11-05T09:27:43.794Z,953.91
2022-11-05T09:28:43.779Z,953.93
2022-11-05T09:29:43.765Z,953.9
2022-11-05T09:30:43.749Z,953.95
2022-11-05T09:31:43.740Z,953.94
2022-11-05T09:32:43.725Z,953.96
2022-11-05T09:33:43.715Z,953.96
2022-11-05T09:34:43.699Z,953.96
2022-11-05T09:35:43.691Z,953.95
2022-11-05T09:36:44.479Z,953.95
2022-11-05T09:37:43.663Z,953.94
2022-11-05T09:38:43.648Z,954.02
2022-11-05T09:39:43.636Z,954.01
2022-11-05T09:40:43.622Z,953.98
2022-11-05T09:41:43.633Z,953.99
2022-11-05T09:42:43.595Z,954.04
2022-11-05T09:43:43.588Z,954.03
2022-11-05T09:44:43.569Z,954.01
2022-11-05T09:45:43.558Z,953.98
2022-11-05T09:46:43.544Z,954.03
2022-11-05T09:47:43.534Z,954
2022-11-05T09:48:43.522Z,954.05
2022-11-05T09:49:43.504Z,954.07
2022-11-05T09:50:43.495Z,954.14
2022-11-05T09:51:43.481Z,954.13
2022-11-05T09:52:43.467Z,954.13
2022-11-05T09:53:43.455Z,954.17
2022-11-05T09:54:43.444Z,954.13
2022-11-05T09:55:43.431Z,954.15
2022-11-05T09:56:43.417Z,954.17
2022-11-05T09:57:43.431Z,954.17
2022-11-05T09:58:43.392Z,954.24
2022-11-05T09:59:43.380Z,954.19
2022-11-05T10:00:43.420Z,954.19
2022-11-05T10:01:43.546Z,954.2
2022-11-05T10:02:43.439Z,954.16
2022-11-05T10:03:43.329Z,954.16
2022-11-05T10:04:43.316Z,954.17
2022-11-05T10:05:43.426Z,954.17
2022-11-05T10:06:43.291Z,954.16
2022-11-05T10:07:43.277Z,954.15
2022-11-05T10:08:43.268Z,954.2
2022-11-05T10:09:43.250Z,954.16
2022-11-05T10:10:43.241Z,954.19
2022-11-05T10:11:43.226Z,954.19
2022-11-05T10:12:43.215Z,954.19
2022-11-05T10:13:43.226Z,954.16
2022-11-05T10:14:43.188Z,954.2
2022-11-05T10:15:43.178Z,954.18
2022-11-05T10:16:43.163Z,954.21
2022-11-05T10:17:43.148Z,954.25
2022-11-05T10:18:43.139Z,954.23
2022-11-05T10:19:43.123Z,954.24
2022-11-05T10:20:43.115Z,954.26
2022-11-05T10:22:48.250Z,954.27
2022-11-05T10:23:43.074Z,954.27
2022-11-05T10:24:43.062Z,954.24
2022-11-05T10:25:43.048Z,954.26
2022-11-05T10:26:43.036Z,954.29
2022-11-05T10:27:43.023Z,954.29
2022-11-05T10:28:43.011Z,954.31
2022-11-05T10:29:43.020Z,954.3
2022-11-05T10:30:42.988Z,954.3
2022-11-05T10:31:43.003Z,954.3
2022-11-05T10:32:42.961Z,954.33
2022-11-05T10:33:42.947Z,954.35
2022-11-05T10:34:42.936Z,954.29
2022-11-05T10:35:42.924Z,954.34
2022-11-05T10:36:42.912Z,954.31
2022-11-05T10:37:42.897Z,954.35
2022-11-05T10:38:42.883Z,954.35
2022-11-05T10:39:42.871Z,954.39
2022-11-05T10:40:42.857Z,954.35
2022-11-05T10:41:42.848Z,954.36
2022-11-05T10:42:42.833Z,954.37
2022-11-05T10:43:42.820Z,954.38
2022-11-05T10:44:42.808Z,954.41
2022-11-05T10:45:42.820Z,954.38
2022-11-05T10:46:42.781Z,954.36
2022-11-05T10:47:42.771Z,954.4
2022-11-05T10:48:44.038Z,954.39
2022-11-05T10:49:42.745Z,954.42
2022-11-05T10:50:42.731Z,954.4
2022-11-05T10:51:42.721Z,954.32
2022-11-05T10:52:42.708Z,954.34
2022-11-05T10:53:42.696Z,954.36
2022-11-05T10:54:42.683Z,954.38
2022-11-05T10:55:42.671Z,954.4
2022-11-05T10:56:42.660Z,954.39
2022-11-05T10:57:42.646Z,954.39
2022-11-05T10:58:42.633Z,954.42
2022-11-05T10:59:42.624Z,954.43
2022-11-05T11:00:42.664Z,954.41
2022-11-05T11:01:42.688Z,954.45
2022-11-05T11:02:42.586Z,954.48
2022-11-05T11:03:42.573Z,954.49
2022-11-05T11:04:42.560Z,954.48
2022-11-05T11:05:42.561Z,954.45
2022-11-05T11:06:42.533Z,954.47
2022-11-05T11:07:42.524Z,954.54
2022-11-05T11:08:42.509Z,954.51
2022-11-05T11:09:42.499Z,954.48
2022-11-05T11:10:42.487Z,954.5
2022-11-05T11:11:42.486Z,954.49
2022-11-05T11:12:42.462Z,954.49
2022-11-05T11:13:42.451Z,954.47
2022-11-05T11:14:42.443Z,954.46
2022-11-05T11:15:42.427Z,954.49
2022-11-05T11:16:42.409Z,954.47
2022-11-05T11:17:42.424Z,954.49
2022-11-05T11:18:42.387Z,954.5
2022-11-05T11:19:42.372Z,954.53
2022-11-05T11:20:42.361Z,954.56
2022-11-05T11:21:42.348Z,954.5
2022-11-05T11:22:42.333Z,954.51
2022-11-05T11:23:42.323Z,954.49
2022-11-05T11:24:42.308Z,954.55
2022-11-05T11:25:42.297Z,954.55
2022-11-05T11:26:42.284Z,954.57
2022-11-05T11:27:42.273Z,954.52
2022-11-05T11:28:42.258Z,954.55
2022-11-05T11:29:46.511Z,954.57
2022-11-05T11:30:42.235Z,954.59
2022-11-05T11:31:42.222Z,954.63
2022-11-05T11:32:42.213Z,954.61
2022-11-05T11:33:42.313Z,954.67
2022-11-05T11:34:42.184Z,954.68
2022-11-05T11:35:42.172Z,954.68
2022-11-05T11:36:42.158Z,954.67
2022-11-05T11:37:42.314Z,954.65
2022-11-05T11:38:42.134Z,954.68
2022-11-05T11:39:42.120Z,954.68
2022-11-05T11:40:42.109Z,954.66
2022-11-05T11:41:42.092Z,954.68
2022-11-05T11:42:42.083Z,954.63
2022-11-05T11:43:42.068Z,954.64
2022-11-05T11:44:42.056Z,954.65
2022-11-05T11:45:42.043Z,954.64
2022-11-05T11:46:42.035Z,954.64
2022-11-05T11:47:42.018Z,954.67
2022-11-05T11:48:42.008Z,954.68
2022-11-05T11:49:42.019Z,954.71
2022-11-05T11:50:41.981Z,954.69
2022-11-05T11:51:41.969Z,954.69
2022-11-05T11:52:41.957Z,954.65
2022-11-05T11:53:41.943Z,954.71
2022-11-05T11:54:41.932Z,954.65
2022-11-05T11:55:41.917Z,954.68
2022-11-05T11:56:41.910Z,954.7
2022-11-05T11:57:41.892Z,954.65
2022-11-05T11:58:41.888Z,954.65
2022-11-05T12:00:06.991Z,954.72
2022-11-05T12:00:41.857Z,954.65
2022-11-05T12:01:41.870Z,954.68
2022-11-05T12:02:41.884Z,954.67
2022-11-05T12:03:41.819Z,954.67
2022-11-05T12:04:41.809Z,954.65
2022-11-05T12:05:41.821Z,954.67
2022-11-05T12:06:41.784Z,954.63
2022-11-05T12:07:41.769Z,954.7
2022-11-05T12:08:45.482Z,954.69
2022-11-05T12:09:41.745Z,954.64
2022-11-05T12:10:41.736Z,954.71
2022-11-05T12:11:41.722Z,954.67
2022-11-05T12:12:41.710Z,954.67
2022-11-05T12:13:41.696Z,954.6
2022-11-05T12:14:46.172Z,954.63
2022-11-05T12:15:41.670Z,954.63
2022-11-05T12:16:41.663Z,954.63
2022-11-05T12:17:41.647Z,954.59
2022-11-05T12:18:41.635Z,954.64
2022-11-05T12:19:41.621Z,954.66
2022-11-05T12:20:41.611Z,954.67
2022-11-05T12:21:52.393Z,954.7
2022-11-05T12:22:41.587Z,954.72
2022-11-05T12:23:41.575Z,954.7
2022-11-05T12:24:41.558Z,954.68
2022-11-05T12:25:41.549Z,954.7
2022-11-05T12:26:41.541Z,954.71
2022-11-05T12:27:41.524Z,954.72
2022-11-05T12:28:58.112Z,954.71
2022-11-05T12:29:41.500Z,954.72
2022-11-05T12:30:41.486Z,954.76
2022-11-05T12:31:41.476Z,954.76
2022-11-05T12:32:41.598Z,954.74
2022-11-05T12:33:41.448Z,954.75
2022-11-05T12:34:41.437Z,954.74
2022-11-05T12:35:45.916Z,954.73
2022-11-05T12:36:41.412Z,954.74
2022-11-05T12:37:41.433Z,954.73
2022-11-05T12:38:41.385Z,954.75
2022-11-05T12:39:41.373Z,954.73
2022-11-05T12:40:41.360Z,954.71
2022-11-05T12:41:41.350Z,954.69
2022-11-05T12:42:41.335Z,954.72
2022-11-05T12:43:41.327Z,954.71
2022-11-05T12:44:41.309Z,954.74
2022-11-05T12:45:41.296Z,954.72
2022-11-05T12:46:41.281Z,954.76
2022-11-05T12:47:41.271Z,954.81
2022-11-05T12:48:41.259Z,954.76